Time;durP1;ratioP1;P1;durP2;ratioP2;P2;SDS_P1;SDS_P2;PMS_P1;PMS_P2;Temp;Humidity;BMP_temperature;BMP_pressure;BME280_temperature;BME280_humidity;BME280_pressure;Samples;Min_cycle;Max_cycle;Signal;HPM_P1;HPM_P2
2022/01/18 00:00:51;;;;;;;;;40.67;31.00;;;;;3.91;100.00;103513.53;5117213;27;45483;-79
2022/01/18 00:03:17;;;;;;;;;48.00;41.00;;;;;3.94;100.00;103517.06;5116833;27;44819;-80
2022/01/18 00:05:45;;;;;;;;;44.67;39.33;;;;;3.93;100.00;103514.44;5116834;27;44762;-80
2022/01/18 00:08:10;;;;;;;;;48.33;38.33;;;;;3.92;100.00;103516.19;5098682;27;45175;-80
2022/01/18 00:10:36;;;;;;;;;44.33;38.33;;;;;3.91;100.00;103509.16;5116858;27;44907;-80
2022/01/18 00:18:05;;;;;;;;;49.67;37.00;;;;;3.86;100.00;103503.84;5123311;27;45242;-83
2022/01/18 00:23:18;;;;;;;;;50.67;43.00;;;;;3.85;100.00;103515.25;5122115;27;45466;-81
2022/01/18 00:25:48;;;;;;;;;49.00;41.00;;;;;3.83;100.00;103497.72;5123172;27;44795;-82
2022/01/18 00:28:14;;;;;;;;;50.67;42.00;;;;;3.80;100.00;103503.84;5117920;27;45124;-83
2022/01/18 00:36:23;;;;;;;;;56.00;40.67;;;;;3.79;100.00;103494.19;5085799;27;45209;-79
2022/01/18 00:38:48;;;;;;;;;51.67;43.00;;;;;3.83;100.00;103501.22;5115698;27;45338;-79
2022/01/18 00:41:17;;;;;;;;;55.67;41.67;;;;;3.85;100.00;103496.84;5116744;27;44846;-79
2022/01/18 00:43:44;;;;;;;;;46.33;41.67;;;;;3.88;100.00;103484.59;5116535;27;44735;-78
2022/01/18 00:46:12;;;;;;;;;61.00;46.00;;;;;3.88;100.00;103480.22;5117041;27;45319;-80
2022/01/18 00:48:38;;;;;;;;;49.67;41.67;;;;;3.90;100.00;103485.47;5116373;27;45160;-78
2022/01/18 00:51:08;;;;;;;;;54.67;42.67;;;;;3.90;100.00;103483.72;5116667;27;45451;-79
2022/01/18 00:53:36;;;;;;;;;59.33;42.67;;;;;3.90;100.00;103491.63;5116083;27;45312;-80
2022/01/18 00:58:34;;;;;;;;;54.00;42.67;;;;;3.95;100.00;103486.38;5122277;27;45093;-80
2022/01/18 01:01:00;;;;;;;;;53.00;44.33;;;;;3.94;100.00;103476.75;5121190;27;45224;-78
2022/01/18 01:03:25;;;;;;;;;54.67;46.00;;;;;3.97;100.00;103488.16;5098413;27;45293;-79
2022/01/18 01:05:51;;;;;;;;;47.00;38.67;;;;;4.01;100.00;103475.88;5098018;27;45050;-79
2022/01/18 01:08:16;;;;;;;;;46.33;37.00;;;;;4.06;100.00;103466.25;5116339;27;45416;-80
2022/01/18 01:10:43;;;;;;;;;50.67;41.33;;;;;4.11;100.00;103482.97;5115712;27;45303;-80
2022/01/18 01:13:10;;;;;;;;;46.67;37.00;;;;;4.09;100.00;103477.69;5116644;27;44800;-80
2022/01/18 01:15:51;;;;;;;;;53.33;40.33;;;;;4.07;100.00;103489.09;5116127;27;45545;-79
2022/01/18 01:35:03;;;;;;;;;55.67;37.33;;;;;3.96;100.00;103489.00;5003125;28;44776;-80
2022/01/18 01:45:40;;;;;;;;;40.67;31.33;;;;;3.84;100.00;103499.47;4982995;28;44787;-79
2022/01/18 01:48:06;;;;;;;;;54.00;42.00;;;;;3.81;100.00;103496.81;4996049;28;45455;-79
2022/01/18 01:50:47;;;;;;;;;47.00;36.33;;;;;3.81;100.00;103505.59;4995777;28;45472;-79
2022/01/18 01:53:14;;;;;;;;;40.00;35.00;;;;;3.79;100.00;103511.72;4995319;28;45414;-79
2022/01/18 01:55:41;;;;;;;;;35.67;33.67;;;;;3.75;100.00;103496.78;4995601;28;45528;-80
2022/01/18 01:58:08;;;;;;;;;47.00;38.33;;;;;3.72;100.00;103502.91;4995809;28;45480;-79
2022/01/18 02:00:43;;;;;;;;;58.67;42.67;;;;;3.59;100.00;103495.81;4995630;28;45569;-80
2022/01/18 02:03:08;;;;;;;;;39.33;28.67;;;;;3.52;100.00;103512.41;4995608;28;44798;-80
2022/01/18 02:05:34;;;;;;;;;47.33;40.00;;;;;3.53;100.00;103520.31;5051148;27;44878;-79
2022/01/18 02:08:00;;;;;;;;;53.33;42.67;;;;;3.51;100.00;103518.53;5101969;27;45205;-80
2022/01/18 02:10:25;;;;;;;;;45.00;40.00;;;;;3.47;100.00;103511.50;5125881;27;45157;-78
2022/01/18 02:12:50;;;;;;;;;57.00;44.00;;;;;3.49;100.00;103510.66;5122987;27;44769;-79
2022/01/18 02:15:18;;;;;;;;;54.00;43.00;;;;;3.54;100.00;103516.81;5119098;27;45630;-80
2022/01/18 02:23:14;;;;;;;;;29.33;27.33;;;;;3.52;100.00;103515.91;5118292;27;45390;-78
2022/01/18 02:25:40;;;;;;;;;26.00;21.00;;;;;3.53;100.00;103514.16;5118669;27;44830;-79
2022/01/18 02:28:06;;;;;;;;;40.00;31.67;;;;;3.51;100.00;103513.28;5099413;27;44836;-79
2022/01/18 02:30:31;;;;;;;;;33.00;28.67;;;;;3.46;100.00;103510.63;5118280;27;45165;-80
2022/01/18 02:32:57;;;;;;;;;32.33;24.67;;;;;3.47;100.00;103516.75;5118502;27;45222;-79
2022/01/18 02:35:22;;;;;;;;;45.67;36.33;;;;;3.45;100.00;103519.38;5118501;27;44802;-80
2022/01/18 02:37:52;;;;;;;;;45.00;31.67;;;;;3.40;100.00;103500.06;5118957;27;45521;-80
2022/01/18 02:40:17;;;;;;;;;34.67;31.33;;;;;3.33;100.00;103499.13;5119347;27;45316;-79
2022/01/18 02:42:54;;;;;;;;;43.00;33.00;;;;;3.30;100.00;103508.75;5100749;27;45327;-79
2022/01/18 02:45:20;;;;;;;;;35.67;27.33;;;;;3.23;100.00;103502.53;5120359;27;44791;-80
2022/01/18 02:47:46;;;;;;;;;43.33;33.00;;;;;3.14;100.00;103496.34;5123103;27;44896;-78
2022/01/18 02:50:11;;;;;;;;;42.33;36.33;;;;;3.11;100.00;103509.47;5119792;27;44969;-79
2022/01/18 02:52:36;;;;;;;;;45.33;38.00;;;;;3.15;100.00;103504.25;5118080;27;45305;-79
2022/01/18 02:55:03;;;;;;;;;35.00;26.67;;;;;3.05;100.00;103499.78;5118920;27;45165;-80
2022/01/18 02:57:28;;;;;;;;;41.33;34.67;;;;;3.00;100.00;103497.13;5118935;27;45307;-81
2022/01/18 03:00:13;;;;;;;;;48.00;36.67;;;;;3.06;100.00;103504.16;5117958;27;45179;-82
2022/01/18 03:05:23;;;;;;;;;40.33;25.33;;;;;2.90;100.00;103484.78;5118503;27;45220;-82
2022/01/18 03:07:49;;;;;;;;;43.33;35.00;;;;;2.93;100.00;103495.28;5117880;27;44841;-80
2022/01/18 03:10:15;;;;;;;;;42.33;34.67;;;;;2.92;100.00;103469.91;5117873;27;45229;-81
2022/01/18 03:12:41;;;;;;;;;46.00;37.00;;;;;2.89;100.00;103475.13;5117381;27;45273;-83
2022/01/18 03:15:07;;;;;;;;;34.33;30.00;;;;;2.93;100.00;103478.66;5118069;27;45338;-83
2022/01/18 03:17:33;;;;;;;;;39.67;30.67;;;;;2.90;100.00;103466.41;5117189;27;45309;-82
2022/01/18 03:19:58;;;;;;;;;34.00;29.33;;;;;2.88;100.00;103462.88;5119067;27;45917;-82
2022/01/18 03:22:25;;;;;;;;;21.67;21.67;;;;;2.95;100.00;103469.94;5120670;27;44754;-81
2022/01/18 03:25:12;;;;;;;;;49.67;37.00;;;;;2.97;100.00;103454.19;5106342;27;44784;-81
2022/01/18 03:30:22;;;;;;;;;38.67;33.00;;;;;2.96;100.00;103469.06;5119355;27;45664;-82
2022/01/18 03:32:47;;;;;;;;;31.00;25.67;;;;;2.99;100.00;103462.94;5117817;27;45279;-80
2022/01/18 03:35:13;;;;;;;;;54.33;35.33;;;;;3.01;100.00;103462.13;5099382;27;44734;-79
2022/01/18 03:37:39;;;;;;;;;47.00;32.67;;;;;3.04;100.00;103472.63;5117748;27;44841;-79
2022/01/18 03:40:06;;;;;;;;;36.67;31.33;;;;;3.05;100.00;103460.41;5117874;27;45405;-80
2022/01/18 03:45:02;;;;;;;;;41.67;34.67;;;;;2.99;100.00;103460.31;5118757;27;45364;-80
2022/01/18 03:47:27;;;;;;;;;34.33;27.67;;;;;3.05;100.00;103461.28;5118878;27;45522;-79
2022/01/18 03:49:53;;;;;;;;;38.33;28.33;;;;;3.01;100.00;103454.22;5118191;27;45377;-80
2022/01/18 03:52:20;;;;;;;;;38.00;35.00;;;;;3.04;100.00;103463.88;5117626;27;45357;-80
2022/01/18 03:54:47;;;;;;;;;40.67;36.33;;;;;3.08;100.00;103465.66;5098994;27;45360;-78
2022/01/18 03:57:14;;;;;;;;;50.00;38.33;;;;;3.12;100.00;103451.69;5116424;27;45377;-80
2022/01/18 03:59:39;;;;;;;;;48.67;38.67;;;;;3.15;100.00;103459.59;5117331;27;45323;-80
2022/01/18 04:02:07;;;;;;;;;38.33;31.33;;;;;3.17;100.00;103463.09;5117638;27;45318;-79
2022/01/18 04:04:33;;;;;;;;;42.67;27.00;;;;;3.19;100.00;103449.97;5123544;27;44835;-79
2022/01/18 04:06:58;;;;;;;;;49.67;40.00;;;;;3.19;100.00;103453.50;5122285;27;45341;-80
2022/01/18 04:09:25;;;;;;;;;43.33;34.33;;;;;3.20;100.00;103454.38;5117350;27;45307;-80
2022/01/18 04:11:51;;;;;;;;;45.33;32.00;;;;;3.21;100.00;103449.13;5117210;27;45375;-80
2022/01/18 04:14:16;;;;;;;;;49.00;37.33;;;;;3.21;100.00;103443.88;5117380;27;44864;-79
2022/01/18 04:16:57;;;;;;;;;46.00;37.00;;;;;3.18;100.00;103443.84;5116918;27;44856;-79
2022/01/18 04:25:49;;;;;;;;;49.00;37.33;;;;;3.15;100.00;103450.84;5116289;27;45283;-79
2022/01/18 04:27:41;;;;;;;;;46.00;36.33;;;;;3.13;100.00;103450.81;5117106;27;44746;-79
2022/01/18 04:30:07;;;;;;;;;53.00;31.00;;;;;3.13;100.00;103439.44;5116507;27;45330;-80
2022/01/18 04:32:32;;;;;;;;;48.33;42.67;;;;;3.09;100.00;103449.94;5116710;27;45109;-79
2022/01/18 04:34:58;;;;;;;;;51.33;41.33;;;;;3.09;100.00;103452.56;5116756;27;44771;-80
2022/01/18 04:37:23;;;;;;;;;46.33;36.33;;;;;3.07;100.00;103443.78;5080838;27;45497;-80
2022/01/18 04:39:49;;;;;;;;;49.67;43.33;;;;;3.06;100.00;103452.53;5098832;27;46708;-80
2022/01/18 04:42:36;;;;;;;;;47.67;36.00;;;;;3.06;100.00;103449.91;5117337;27;45388;-79
2022/01/18 04:50:31;;;;;;;;;48.33;38.67;;;;;3.04;100.00;103437.59;5116952;27;44970;-80
2022/01/18 04:52:56;;;;;;;;;36.00;25.00;;;;;3.01;100.00;103442.84;5118550;27;44711;-81
2022/01/18 04:55:24;;;;;;;;;49.33;40.00;;;;;3.03;100.00;103438.47;5121165;27;44705;-80
2022/01/18 04:57:53;;;;;;;;;44.33;39.33;;;;;2.99;100.00;103439.31;5122187;27;45453;-80
2022/01/18 05:00:23;;;;;;;;;57.33;40.67;;;;;3.01;100.00;103440.22;5122073;27;46165;-81
2022/01/18 05:02:49;;;;;;;;;50.33;39.33;;;;;3.00;100.00;103438.47;5094242;27;44893;-80
2022/01/18 05:05:27;;;;;;;;;37.00;28.33;;;;;3.01;100.00;103441.09;5080461;27;45310;-79
2022/01/18 05:07:54;;;;;;;;;36.33;24.33;;;;;3.03;100.00;103441.09;5099396;27;44894;-80
2022/01/18 05:10:23;;;;;;;;;53.67;39.33;;;;;3.04;100.00;103451.63;5099260;27;45095;-79
2022/01/18 05:12:52;;;;;;;;;42.33;37.67;;;;;3.01;100.00;103442.84;5098998;27;44797;-81
2022/01/18 05:23:19;;;;;;;;;40.67;34.00;;;;;3.19;100.00;103457.84;5101150;27;45393;-81
2022/01/18 05:25:46;;;;;;;;;49.33;37.00;;;;;3.22;100.00;103461.41;5087864;27;44733;-82
2022/01/18 05:28:12;;;;;;;;;47.67;34.00;;;;;3.25;100.00;103461.44;5103056;27;44860;-82
2022/01/18 05:30:38;;;;;;;;;45.67;33.67;;;;;3.28;100.00;103461.44;5099116;27;45285;-82
2022/01/18 05:33:03;;;;;;;;;59.00;39.00;;;;;3.33;100.00;103451.84;5098847;27;45334;-81
2022/01/18 05:35:29;;;;;;;;;48.33;36.00;;;;;3.35;100.00;103433.47;5099345;27;45051;-81
2022/01/18 05:37:55;;;;;;;;;38.67;33.67;;;;;3.36;100.00;103440.47;5099264;27;44857;-81
2022/01/18 05:40:20;;;;;;;;;45.33;37.00;;;;;3.40;100.00;103438.75;5098911;27;45396;-81
2022/01/18 05:42:46;;;;;;;;;50.00;36.00;;;;;3.39;100.00;103432.63;5099099;27;44851;-82
2022/01/18 05:45:13;;;;;;;;;50.00;36.33;;;;;3.37;100.00;103425.59;5098566;27;44822;-81
2022/01/18 05:47:40;;;;;;;;;51.33;35.33;;;;;3.35;100.00;103422.97;5098713;27;44822;-80
2022/01/18 05:50:07;;;;;;;;;42.00;29.67;;;;;3.35;100.00;103417.72;5098494;27;45488;-83
2022/01/18 05:52:34;;;;;;;;;48.00;35.33;;;;;3.31;100.00;103416.81;5099995;27;45320;-82
2022/01/18 05:54:59;;;;;;;;;50.67;36.00;;;;;3.31;100.00;103415.94;5101006;27;44813;-81
2022/01/18 05:57:25;;;;;;;;;45.67;37.67;;;;;3.29;100.00;103423.81;5079972;27;44933;-83
2022/01/18 05:59:53;;;;;;;;;27.33;20.00;;;;;3.28;100.00;103423.78;5098799;27;45327;-83
2022/01/18 06:02:32;;;;;;;;;34.00;32.00;;;;;3.28;100.00;103422.03;5083925;27;44812;-83
2022/01/18 06:07:42;;;;;;;;;37.00;25.67;;;;;3.28;100.00;103423.78;5126045;27;45406;-83
2022/01/18 06:10:08;;;;;;;;;41.33;35.00;;;;;3.29;100.00;103421.19;5105426;27;45082;-81
2022/01/18 06:12:33;;;;;;;;;34.67;24.33;;;;;3.28;100.00;103423.78;5119275;27;44815;-83
2022/01/18 06:14:59;;;;;;;;;31.67;25.00;;;;;3.29;100.00;103423.81;5119415;27;44814;-82
2022/01/18 06:17:25;;;;;;;;;30.33;26.00;;;;;3.28;100.00;103426.41;5100363;27;44762;-83
2022/01/18 06:19:50;;;;;;;;;41.00;30.67;;;;;3.26;100.00;103428.16;5100328;27;45160;-82
2022/01/18 06:22:16;;;;;;;;;31.67;22.00;;;;;3.26;100.00;103436.91;5119380;27;44840;-83
2022/01/18 06:24:41;;;;;;;;;41.67;32.33;;;;;3.22;100.00;103427.25;5119042;27;44740;-81
2022/01/18 06:27:07;;;;;;;;;16.67;14.00;;;;;3.18;100.00;103421.97;5119070;27;45669;-81
2022/01/18 06:29:33;;;;;;;;;43.33;27.33;;;;;3.15;100.00;103422.84;5118922;27;45332;-81
2022/01/18 06:31:58;;;;;;;;;28.33;20.67;;;;;3.16;100.00;103434.22;5118542;27;44752;-81
2022/01/18 06:34:23;;;;;;;;;35.67;24.00;;;;;3.12;100.00;103445.56;5118860;27;45125;-82
2022/01/18 06:36:49;;;;;;;;;27.33;19.67;;;;;3.11;100.00;103444.69;5100566;27;44877;-81
2022/01/18 06:39:16;;;;;;;;;36.67;30.00;;;;;3.11;100.00;103449.06;5118769;27;44919;-82
2022/01/18 06:41:46;;;;;;;;;40.33;28.67;;;;;3.14;100.00;103449.06;5119038;27;44772;-81
2022/01/18 06:44:12;;;;;;;;;31.00;26.33;;;;;3.13;100.00;103439.44;5120586;27;44696;-81
2022/01/18 06:46:38;;;;;;;;;29.67;24.67;;;;;3.15;100.00;103437.72;5125638;27;45483;-82
2022/01/18 06:49:03;;;;;;;;;37.33;29.00;;;;;3.16;100.00;103445.59;5103292;27;45386;-83
2022/01/18 06:51:29;;;;;;;;;37.33;30.00;;;;;3.14;100.00;103446.44;5104913;27;44734;-83
2022/01/18 06:53:56;;;;;;;;;34.33;27.00;;;;;3.11;100.00;103447.31;5082866;27;45492;-83
2022/01/18 06:56:22;;;;;;;;;30.67;26.67;;;;;3.09;100.00;103444.69;5099414;27;45472;-83
2022/01/18 06:58:47;;;;;;;;;29.67;29.00;;;;;3.09;100.00;103442.06;5097485;27;45589;-81
2022/01/18 07:01:13;;;;;;;;;33.67;32.33;;;;;3.13;100.00;103447.31;5097412;27;44833;-81
2022/01/18 07:03:40;;;;;;;;;39.67;26.67;;;;;3.15;100.00;103451.72;5097381;27;44910;-82
2022/01/18 07:06:06;;;;;;;;;40.00;31.67;;;;;3.17;100.00;103443.84;5079337;27;45403;-83
2022/01/18 07:08:32;;;;;;;;;33.67;30.67;;;;;3.13;100.00;103447.31;5079462;27;46634;-81
2022/01/18 07:10:58;;;;;;;;;38.67;31.33;;;;;3.16;100.00;103453.47;5098222;27;45466;-82
2022/01/18 07:13:24;;;;;;;;;31.00;25.67;;;;;3.16;100.00;103449.97;5098365;27;44885;-81
2022/01/18 07:15:50;;;;;;;;;43.00;23.00;;;;;3.16;100.00;103442.97;5101083;27;44809;-83
2022/01/18 07:18:15;;;;;;;;;35.00;30.67;;;;;3.16;100.00;103445.59;5083221;27;45246;-85
2022/01/18 07:20:41;;;;;;;;;34.33;25.33;;;;;3.16;100.00;103440.34;5100651;27;45476;-83
2022/01/18 07:23:11;;;;;;;;;37.67;27.33;;;;;3.16;100.00;103439.47;5080973;27;45486;-84
2022/01/18 07:25:42;;;;;;;;;38.33;32.67;;;;;3.14;100.00;103436.81;5100857;27;45307;-83
2022/01/18 07:28:08;;;;;;;;;36.67;31.33;;;;;3.11;100.00;103428.06;5082356;27;46742;-84
2022/01/18 07:30:34;;;;;;;;;38.67;28.33;;;;;3.14;100.00;103439.44;5084608;27;45360;-84
2022/01/18 07:32:59;;;;;;;;;33.00;28.67;;;;;3.17;100.00;103441.22;5095427;27;45236;-83
2022/01/18 07:35:27;;;;;;;;;39.67;27.67;;;;;3.18;100.00;103428.09;5104719;27;44882;-82
2022/01/18 07:37:52;;;;;;;;;36.67;31.00;;;;;3.21;100.00;103416.75;5135491;27;45223;-83
2022/01/18 07:40:17;;;;;;;;;35.00;30.33;;;;;3.22;100.00;103418.50;5135690;27;44614;-83
2022/01/18 07:42:43;;;;;;;;;29.00;25.00;;;;;3.25;100.00;103427.28;5129261;27;45367;-84
2022/01/18 07:45:09;;;;;;;;;32.67;30.33;;;;;3.28;100.00;103421.16;5106599;27;44801;-82
2022/01/18 07:47:34;;;;;;;;;37.67;32.67;;;;;3.33;100.00;103427.31;5125682;27;45003;-83
2022/01/18 07:50:00;;;;;;;;;41.00;33.33;;;;;3.35;100.00;103421.22;5119967;27;44716;-85
2022/01/18 07:52:25;;;;;;;;;32.33;28.67;;;;;3.38;100.00;103416.84;5119278;27;44691;-86
2022/01/18 07:54:51;;;;;;;;;34.33;28.67;;;;;3.41;100.00;103427.38;5119640;27;45165;-83
2022/01/18 07:57:16;;;;;;;;;34.67;31.33;;;;;3.44;100.00;103422.16;5118192;27;45027;-84
2022/01/18 07:59:42;;;;;;;;;36.67;31.33;;;;;3.48;100.00;103416.00;5117897;27;44796;-83
2022/01/18 08:02:07;;;;;;;;;36.67;29.00;;;;;3.50;100.00;103412.53;5115429;27;44792;-83
2022/01/18 08:04:33;;;;;;;;;42.00;34.67;;;;;3.54;100.00;103422.22;5078385;27;45311;-84
2022/01/18 08:06:58;;;;;;;;;39.33;33.33;;;;;3.62;100.00;103411.72;5096423;27;45183;-83
2022/01/18 08:09:23;;;;;;;;;43.00;35.00;;;;;3.69;100.00;103403.00;5096930;27;44812;-83
2022/01/18 08:11:52;;;;;;;;;37.67;32.00;;;;;3.74;100.00;103398.66;5096894;27;45319;-83
2022/01/18 08:14:18;;;;;;;;;36.33;28.33;;;;;3.81;100.00;103402.16;5097839;27;45369;-83
2022/01/18 08:19:11;;;;;;;;;38.00;33.33;;;;;4.01;100.00;103403.16;5104123;27;44816;-84
2022/01/18 08:21:36;;;;;;;;;35.67;34.00;;;;;4.12;100.00;103395.28;5099292;27;45445;-83
2022/01/18 08:24:02;;;;;;;;;46.00;36.00;;;;;4.18;100.00;103384.75;5096737;27;45374;-83
2022/01/18 08:26:27;;;;;;;;;33.00;30.00;;;;;4.24;100.00;103392.66;5096007;27;45518;-83
2022/01/18 08:28:53;;;;;;;;;38.33;33.33;;;;;4.35;100.00;103397.94;5099967;27;44845;-83
2022/01/18 08:31:18;;;;;;;;;32.33;31.00;;;;;4.43;100.00;103398.84;5100253;27;45432;-83
2022/01/18 08:33:44;;;;;;;;;43.67;33.00;;;;;4.52;100.00;103396.22;5099924;27;44876;-83
2022/01/18 08:36:09;;;;;;;;;43.33;36.33;;;;;4.60;100.00;103398.88;5080690;27;46069;-84
2022/01/18 08:38:35;;;;;;;;;49.67;38.67;;;;;4.66;100.00;103396.25;5081555;27;45377;-83
2022/01/18 08:41:02;;;;;;;;;41.00;34.00;;;;;4.72;100.00;103388.34;5100050;27;45457;-82
2022/01/18 08:43:31;;;;;;;;;46.33;35.67;;;;;4.83;100.00;103397.09;5080884;27;45311;-84
2022/01/18 08:46:03;;;;;;;;;30.00;26.00;;;;;4.94;100.00;103391.84;5099316;27;46270;-83
2022/01/18 08:48:28;;;;;;;;;39.33;31.33;;;;;5.04;100.00;103387.44;5099729;27;45363;-83
2022/01/18 08:50:54;;;;;;;;;28.33;25.33;;;;;5.09;100.00;103385.69;5099906;27;45471;-81
2022/01/18 08:53:19;;;;;;;;;29.00;26.67;;;;;5.13;100.00;103393.59;5101185;27;45312;-83
2022/01/18 08:55:45;;;;;;;;;30.00;25.67;;;;;5.18;100.00;103384.81;5083911;27;46376;-84
2022/01/18 08:58:10;;;;;;;;;30.00;27.00;;;;;5.23;100.00;103372.50;5103105;27;45474;-83
2022/01/18 09:00:36;;;;;;;;;28.67;25.00;;;;;5.29;100.00;103377.75;5083360;27;44795;-84
2022/01/18 09:03:02;;;;;;;;;33.33;26.33;;;;;5.40;100.00;103381.22;5116185;27;45424;-85
2022/01/18 09:05:27;;;;;;;;;29.67;27.67;;;;;5.50;100.00;103376.78;5125044;27;45310;-83
2022/01/18 09:07:53;;;;;;;;;48.33;33.33;;;;;5.54;100.00;103378.53;5101977;27;45484;-84
2022/01/18 09:10:20;;;;;;;;;37.33;30.67;;;;;5.57;100.00;103370.63;5120193;27;45342;-83
2022/01/18 09:12:45;;;;;;;;;34.67;32.67;;;;;5.62;100.00;103371.50;5119294;27;45577;-84
2022/01/18 09:15:12;;;;;;;;;51.00;35.00;;;;;5.68;100.00;103368.81;5119974;27;45181;-81
2022/01/18 09:17:40;;;;;;;;;36.33;27.33;;;;;5.76;100.00;103371.44;5120198;27;44893;-82
2022/01/18 09:20:08;;;;;;;;;27.00;24.33;;;;;5.80;100.00;103371.41;5120289;27;44872;-84
2022/01/18 09:22:35;;;;;;;;;36.33;25.67;;;;;5.88;100.00;103371.38;5102021;27;44906;-84
2022/01/18 09:25:05;;;;;;;;;45.67;34.67;;;;;5.91;100.00;103368.72;5122954;27;45230;-84
2022/01/18 09:27:30;;;;;;;;;22.67;16.33;;;;;5.97;100.00;103373.13;5120750;27;44769;-83
2022/01/18 09:29:56;;;;;;;;;44.67;34.67;;;;;6.02;100.00;103366.06;5120299;27;45542;-84
2022/01/18 09:32:22;;;;;;;;;37.67;31.67;;;;;6.07;100.00;103369.53;5122201;27;44884;-85
2022/01/18 09:34:48;;;;;;;;;36.00;29.67;;;;;6.15;100.00;103365.09;5125848;27;45341;-83
2022/01/18 09:37:14;;;;;;;;;35.33;34.00;;;;;6.25;100.00;103361.53;5103891;27;45044;-84
2022/01/18 09:39:39;;;;;;;;;48.67;38.00;;;;;6.32;100.00;103364.97;5120971;27;45038;-83
2022/01/18 09:42:05;;;;;;;;;40.33;30.67;;;;;6.40;100.00;103363.16;5122823;27;44815;-85
2022/01/18 09:44:31;;;;;;;;;38.00;32.67;;;;;6.46;100.00;103362.25;5102591;27;45281;-84
2022/01/18 09:46:57;;;;;;;;;33.00;29.00;;;;;6.53;100.00;103362.19;5125793;27;45309;-84
2022/01/18 09:49:24;;;;;;;;;35.67;30.00;;;;;6.61;100.00;103365.63;5108149;27;44838;-84
2022/01/18 09:51:51;;;;;;;;;34.67;33.33;;;;;6.67;100.00;103376.19;5120035;27;44834;-83
2022/01/18 09:54:17;;;;;;;;;34.00;30.67;;;;;6.75;100.00;103357.59;5120304;27;45359;-84
2022/01/18 09:56:43;;;;;;;;;36.67;31.67;;;;;6.78;100.00;103365.50;5121040;27;45178;-83
2022/01/18 09:59:09;;;;;;;;;36.67;34.00;;;;;6.86;100.00;103362.78;5101649;27;44805;-83
2022/01/18 10:01:35;;;;;;;;;30.00;26.67;;;;;6.90;100.00;103360.09;5102860;27;45573;-84
2022/01/18 10:04:22;;;;;;;;;26.75;24.00;;;;;6.96;100.00;103356.50;5120267;27;45150;-84
2022/01/18 10:06:50;;;;;;;;;43.33;34.33;;;;;7.01;100.00;103351.19;5101754;27;44835;-84
2022/01/18 10:09:17;;;;;;;;;38.33;33.00;;;;;7.03;100.00;103355.59;5121162;27;45559;-85
2022/01/18 10:12:10;;;;;;;;;32.00;29.00;;;;;7.11;100.00;103361.69;5121115;27;44821;-85
2022/01/18 10:14:38;;;;;;;;;29.50;23.75;;;;;7.14;100.00;103361.63;5122125;27;45484;-84
2022/01/18 10:17:05;;;;;;;;;30.33;27.67;;;;;7.19;100.00;103349.22;5104091;27;44803;-84
2022/01/18 10:19:46;;;;;;;;;32.00;26.50;;;;;7.32;100.00;103334.13;5119654;27;44886;-85
2022/01/18 10:22:19;;;;;;;;;33.33;30.67;;;;;7.40;100.00;103350.78;5101719;27;45424;-83
2022/01/18 10:24:45;;;;;;;;;32.67;27.67;;;;;7.48;100.00;103353.31;5120349;27;45696;-84
2022/01/18 10:27:13;;;;;;;;;41.67;31.33;;;;;7.48;100.00;103342.75;5103192;27;44840;-83
2022/01/18 10:29:49;;;;;;;;;36.25;23.25;;;;;7.46;100.00;103329.53;5122734;27;45421;-85
2022/01/18 10:32:28;;;;;;;;;40.00;32.33;;;;;7.50;100.00;103327.75;5099226;27;45583;-83
2022/01/18 10:37:33;;;;;;;;;32.33;29.00;;;;;7.65;100.00;103316.09;5120073;27;44749;-84
2022/01/18 10:40:06;;;;;;;;;34.75;26.75;;;;;7.73;100.00;103316.84;5118425;27;45733;-85
2022/01/18 10:42:51;;;;;;;;;25.00;20.50;;;;;7.80;100.00;103307.06;5118732;27;44880;-84
2022/01/18 10:45:31;;;;;;;;;35.00;25.33;;;;;7.84;100.00;103307.00;5118866;27;45510;-83
2022/01/18 10:48:01;;;;;;;;;34.75;27.50;;;;;7.86;100.00;103293.75;5116102;27;45727;-84
2022/01/18 10:50:41;;;;;;;;;28.50;22.25;;;;;7.91;100.00;103286.59;5099974;27;45319;-83
2022/01/18 10:53:25;;;;;;;;;34.75;27.50;;;;;7.93;100.00;103288.34;5099570;27;45497;-85
2022/01/18 10:56:12;;;;;;;;;21.75;16.25;;;;;8.03;100.00;103294.38;5117826;27;45128;-85
2022/01/18 10:58:47;;;;;;;;;26.25;22.75;;;;;8.11;100.00;103270.41;5120770;27;45361;-84
2022/01/18 11:01:17;;;;;;;;;30.50;25.00;;;;;8.14;100.00;103278.31;5114940;27;44738;-85
2022/01/18 11:04:06;;;;;;;;;34.00;26.00;;;;;8.19;100.00;103269.41;5120206;27;45564;-85
2022/01/18 11:06:32;;;;;;;;;35.00;23.50;;;;;8.25;100.00;103269.28;5092912;27;47080;-84
2022/01/18 11:09:07;;;;;;;;;30.25;24.50;;;;;8.24;100.00;103264.91;5118916;27;45333;-85
2022/01/18 11:11:40;;;;;;;;;25.75;23.75;;;;;8.27;100.00;103252.50;5101056;27;44770;-85
2022/01/18 11:14:07;;;;;;;;;24.25;23.00;;;;;8.27;100.00;103247.19;5120561;27;45424;-84
2022/01/18 11:16:40;;;;;;;;;29.50;25.50;;;;;8.36;100.00;103257.63;5120656;27;45487;-85
2022/01/18 11:19:07;;;;;;;;;20.25;16.25;;;;;8.44;100.00;103235.44;5121549;27;45561;-84
2022/01/18 11:21:33;;;;;;;;;13.75;13.75;;;;;8.50;100.00;103239.75;5102893;27;44821;-84
2022/01/18 11:24:00;;;;;;;;;21.75;19.25;;;;;8.59;100.00;103239.59;5101136;27;44909;-83
2022/01/18 11:26:27;;;;;;;;;18.75;18.75;;;;;8.66;100.00;103222.69;5098300;27;46624;-83
2022/01/18 11:29:02;;;;;;;;;24.00;21.00;;;;;8.73;100.00;103223.44;5118723;27;45448;-84
2022/01/18 11:31:34;;;;;;;;;25.75;24.00;;;;;8.73;100.00;103213.72;5101586;27;44799;-85
2022/01/18 11:34:05;;;;;;;;;20.50;18.75;;;;;8.78;100.00;103210.09;5100524;27;44881;-82
2022/01/18 11:36:44;;;;;;;;;20.25;18.25;;;;;8.81;100.00;103202.97;5111373;27;47280;-84
2022/01/18 11:39:12;;;;;;;;;21.00;19.50;;;;;8.88;100.00;103185.16;5100663;27;45385;-84
2022/01/18 11:41:48;;;;;;;;;21.25;16.75;;;;;8.96;100.00;103186.75;5099239;27;44830;-84
2022/01/18 11:44:19;;;;;;;;;21.75;18.50;;;;;9.05;100.00;103183.03;5097828;27;45325;-83
2022/01/18 11:46:55;;;;;;;;;20.25;17.50;;;;;9.11;100.00;103174.09;5098398;27;45669;-85
2022/01/18 11:49:30;;;;;;;;;11.00;9.40;;;;;9.17;100.00;103176.59;5099466;27;45217;-83
2022/01/18 11:52:03;;;;;;;;;19.50;16.00;;;;;9.24;100.00;103181.75;5103040;27;44847;-83
2022/01/18 11:54:45;;;;;;;;;12.75;12.50;;;;;9.30;100.00;103174.56;5103400;27;44828;-85
2022/01/18 12:09:00;;;;;;;;;8.50;8.25;;;;;9.50;100.00;103153.72;5030205;28;45695;-84
2022/01/18 12:15:15;;;;;;;;;18.20;13.40;;;;;9.53;100.00;103148.38;5031626;28;44782;-84
2022/01/18 12:22:26;;;;;;;;;9.50;9.50;;;;;9.58;100.00;103130.56;4963993;28;45600;-84
2022/01/18 12:29:20;;;;;;;;;7.80;7.80;;;;;9.76;100.00;103113.28;4855596;29;45016;-84
2022/01/18 12:32:56;;;;;;;;;10.80;8.80;;;;;9.63;100.00;103118.03;4773408;29;45386;-84
2022/01/18 12:35:59;;;;;;;;;19.00;14.50;;;;;9.61;100.00;103108.34;4779776;29;45578;-84
2022/01/18 12:38:37;;;;;;;;;18.25;15.25;;;;;9.71;100.00;103104.56;4744869;29;45344;-84
2022/01/18 12:42:00;;;;;;;;;19.50;18.00;;;;;9.70;100.00;103102.81;4773799;29;44877;-83
2022/01/18 12:45:13;;;;;;;;;24.25;19.50;;;;;9.66;100.00;103099.38;4766791;29;45050;-85
2022/01/18 12:48:41;;;;;;;;;15.00;12.75;;;;;9.67;100.00;103093.19;4773104;29;44959;-84
2022/01/18 12:51:09;;;;;;;;;28.25;19.25;;;;;9.78;100.00;103083.16;4766751;29;46668;-86
2022/01/18 12:53:37;;;;;;;;;34.75;31.00;;;;;9.69;100.00;103096.66;4754208;29;45304;-85
2022/01/18 12:56:06;;;;;;;;;18.75;18.75;;;;;9.59;100.00;103078.34;4799790;29;45362;-86
2022/01/18 12:58:31;;;;;;;;;24.75;20.25;;;;;9.47;100.00;103090.97;4854655;29;44863;-86
2022/01/18 13:01:07;;;;;;;;;20.25;17.25;;;;;9.56;100.00;103086.38;4860973;29;45105;-85
2022/01/18 13:03:39;;;;;;;;;21.40;17.60;;;;;9.69;100.00;103078.06;4867265;29;45423;-86